Time;durP1;ratioP1;P1;durP2;ratioP2;P2;SDS_P1;SDS_P2;PMS_P1;PMS_P2;Temp;Humidity;BMP_temperature;BMP_pressure;BME280_temperature;BME280_humidity;BME280_pressure;Samples;Min_cycle;Max_cycle;Signal;HPM_P1;HPM_P2
2021/12/22 00:01:13;;;;;;;3.03;2.10;;;21.10;29.20;;;;;;5047619;28;20333;-51
2021/12/22 00:03:42;;;;;;;3.70;2.50;;;21.10;29.10;;;;;;5035012;28;20072;-57
2021/12/22 00:06:08;;;;;;;3.28;2.17;;;21.10;29.20;;;;;;5050444;28;20036;-53
2021/12/22 00:08:34;;;;;;;4.15;2.08;;;21.10;29.10;;;;;;5054331;28;20028;-51
2021/12/22 00:11:00;;;;;;;2.80;2.30;;;21.10;29.10;;;;;;5044230;28;20087;-51
2021/12/22 00:13:25;;;;;;;2.50;2.13;;;21.10;29.10;;;;;;5049983;28;20355;-51
2021/12/22 00:15:51;;;;;;;2.97;2.17;;;21.10;29.10;;;;;;5043658;28;20086;-52
2021/12/22 00:18:17;;;;;;;2.70;1.98;;;21.10;29.10;;;;;;5035013;28;20029;-53
2021/12/22 00:20:43;;;;;;;2.17;1.92;;;21.10;29.10;;;;;;5038231;28;20079;-54
2021/12/22 00:23:08;;;;;;;2.92;2.05;;;21.00;29.00;;;;;;5045350;28;20359;-50
2021/12/22 00:25:35;;;;;;;3.03;2.20;;;21.00;29.00;;;;;;5046590;28;20035;-52
2021/12/22 00:28:01;;;;;;;2.80;2.00;;;21.00;29.00;;;;;;5049262;28;20021;-47
2021/12/22 00:30:28;;;;;;;2.65;1.90;;;21.00;29.00;;;;;;5043096;28;20052;-50
2021/12/22 00:33:01;;;;;;;2.72;1.90;;;21.00;29.00;;;;;;5052425;28;20060;-54
2021/12/22 00:35:30;;;;;;;3.42;2.33;;;21.00;29.00;;;;;;5034708;28;20109;-49
2021/12/22 00:37:56;;;;;;;3.63;2.42;;;21.00;29.00;;;;;;5036878;28;20033;-50
2021/12/22 00:40:22;;;;;;;3.35;2.25;;;21.00;29.00;;;;;;5042335;28;20459;-51
2021/12/22 00:42:47;;;;;;;2.92;2.17;;;21.00;29.00;;;;;;5039169;28;20104;-51
2021/12/22 00:45:15;;;;;;;2.95;1.95;;;21.00;28.90;;;;;;5045247;28;20033;-47
2021/12/22 00:47:41;;;;;;;2.75;1.85;;;21.00;28.90;;;;;;5047164;28;20024;-51
2021/12/22 00:50:07;;;;;;;3.55;2.28;;;21.00;28.90;;;;;;5050452;28;20036;-46
2021/12/22 00:52:33;;;;;;;2.80;1.98;;;21.00;28.90;;;;;;5048216;28;20440;-46
2021/12/22 00:54:58;;;;;;;3.15;2.13;;;21.00;28.90;;;;;;5043004;28;20029;-49
2021/12/22 00:57:24;;;;;;;2.15;1.90;;;20.90;28.90;;;;;;5051466;28;20112;-48
2021/12/22 00:59:50;;;;;;;2.60;2.08;;;20.90;28.90;;;;;;5052807;28;20074;-48
2021/12/22 01:02:18;;;;;;;3.00;2.30;;;20.90;28.80;;;;;;5056950;28;20184;-51
2021/12/22 01:04:45;;;;;;;2.83;2.13;;;20.90;28.90;;;;;;5051866;28;20455;-49
2021/12/22 01:07:11;;;;;;;3.47;2.20;;;20.90;28.90;;;;;;5057185;28;20028;-51
2021/12/22 01:09:37;;;;;;;3.53;2.40;;;20.90;28.90;;;;;;5049324;28;20025;-50
2021/12/22 01:12:04;;;;;;;3.42;2.53;;;20.90;28.90;;;;;;5051810;28;20448;-49
2021/12/22 01:14:31;;;;;;;3.83;2.22;;;20.90;28.90;;;;;;5041655;28;20444;-49
2021/12/22 01:17:01;;;;;;;2.60;2.22;;;20.90;28.80;;;;;;5037952;28;20033;-46
2021/12/22 01:19:38;;;;;;;4.05;2.28;;;20.90;28.80;;;;;;5047345;28;20030;-51
2021/12/22 01:22:47;;;;;;;2.90;2.28;;;20.80;28.80;;;;;;5048889;28;20029;-49
2021/12/22 01:25:02;;;;;;;2.03;1.83;;;20.80;28.80;;;;;;5033897;28;20037;-48
2021/12/22 01:27:34;;;;;;;3.47;2.28;;;20.80;28.80;;;;;;5037888;28;20109;-50
2021/12/22 01:30:04;;;;;;;2.95;2.20;;;20.80;28.80;;;;;;5041738;28;20470;-54
2021/12/22 01:32:29;;;;;;;2.88;1.83;;;20.80;28.80;;;;;;5045737;28;20033;-47
2021/12/22 01:34:55;;;;;;;3.28;2.30;;;20.80;28.70;;;;;;5050604;28;20026;-54
2021/12/22 01:37:21;;;;;;;3.15;1.80;;;20.80;28.70;;;;;;5037828;28;20036;-47
2021/12/22 01:39:47;;;;;;;2.78;2.10;;;20.80;28.70;;;;;;5045216;28;20030;-49
2021/12/22 01:42:12;;;;;;;3.00;1.98;;;20.80;28.70;;;;;;5038172;28;20044;-51
2021/12/22 01:45:01;;;;;;;2.20;1.67;;;20.70;28.70;;;;;;5042035;28;20025;-49
2021/12/22 01:50:16;;;;;;;2.67;1.80;;;20.80;28.70;;;;;;5045093;28;20024;-51
2021/12/22 01:52:41;;;;;;;3.08;2.38;;;20.80;28.70;;;;;;5046789;28;20340;-52
2021/12/22 01:55:27;;;;;;;3.50;2.28;;;20.70;28.60;;;;;;5047589;28;20040;-48
2021/12/22 01:57:52;;;;;;;2.85;2.15;;;20.80;28.70;;;;;;5047474;28;20025;-46
2021/12/22 02:00:22;;;;;;;3.13;2.28;;;20.70;28.60;;;;;;5038831;28;20096;-47
2021/12/22 02:02:49;;;;;;;3.25;2.28;;;20.70;28.60;;;;;;5027647;28;20052;-50
2021/12/22 02:05:14;;;;;;;3.22;2.20;;;20.70;28.60;;;;;;5048819;28;20363;-51
2021/12/22 02:07:41;;;;;;;3.03;2.28;;;20.70;28.60;;;;;;5055170;28;20033;-53
2021/12/22 02:10:28;;;;;;;3.53;2.55;;;20.70;28.60;;;;;;5043730;28;20091;-47
2021/12/22 02:12:55;;;;;;;2.90;2.28;;;20.70;28.60;;;;;;5053894;28;20036;-52
2021/12/22 02:15:21;;;;;;;3.10;2.40;;;20.70;28.60;;;;;;5041877;28;20340;-48
2021/12/22 02:17:49;;;;;;;2.72;2.13;;;20.70;28.50;;;;;;5052916;28;20029;-50
2021/12/22 02:20:15;;;;;;;3.90;2.72;;;20.70;28.60;;;;;;5049171;28;20032;-49
2021/12/22 02:22:43;;;;;;;3.47;2.53;;;20.70;28.50;;;;;;5053543;28;20034;-48
2021/12/22 02:25:16;;;;;;;3.05;2.28;;;20.70;28.50;;;;;;5056581;28;20025;-51
2021/12/22 02:27:54;;;;;;;4.23;2.60;;;20.70;29.00;;;;;;5048688;28;20021;-49
2021/12/22 02:30:24;;;;;;;3.35;2.42;;;20.60;28.50;;;;;;5039078;28;20044;-49
2021/12/22 02:35:44;;;;;;;4.38;2.75;;;20.60;28.50;;;;;;5053448;28;20020;-54
2021/12/22 02:38:17;;;;;;;3.40;2.65;;;20.60;28.40;;;;;;5037565;28;20017;-48
2021/12/22 02:40:51;;;;;;;3.92;2.55;;;20.60;28.50;;;;;;5040325;28;20037;-50
2021/12/22 02:43:21;;;;;;;3.00;2.40;;;20.60;28.50;;;;;;5036437;28;20043;-50
2021/12/22 02:45:48;;;;;;;4.25;2.42;;;20.60;28.50;;;;;;5044184;28;20026;-51
2021/12/22 02:48:13;;;;;;;3.92;3.08;;;20.60;28.40;;;;;;5054368;28;20040;-51
2021/12/22 02:50:40;;;;;;;3.08;2.42;;;20.60;28.40;;;;;;5047974;28;20033;-55
2021/12/22 02:53:11;;;;;;;3.80;2.53;;;20.60;28.40;;;;;;5048951;28;20060;-50
2021/12/22 02:55:50;;;;;;;3.05;2.20;;;20.50;28.30;;;;;;5049845;28;20400;-50
2021/12/22 02:58:33;;;;;;;3.20;2.50;;;20.60;28.40;;;;;;5052656;28;20033;-47
2021/12/22 03:01:24;;;;;;;3.67;2.50;;;20.60;28.40;;;;;;5051234;28;20352;-48
2021/12/22 03:03:57;;;;;;;4.05;2.40;;;20.50;28.40;;;;;;5040244;28;20073;-46
2021/12/22 03:07:13;;;;;;;2.70;2.05;;;20.50;28.40;;;;;;5036948;28;20341;-50
2021/12/22 03:09:26;;;;;;;3.40;2.42;;;20.50;28.60;;;;;;5024971;28;20429;-49
2021/12/22 03:11:54;;;;;;;2.97;2.22;;;20.50;28.40;;;;;;5048969;28;20029;-52
2021/12/22 03:14:23;;;;;;;2.63;2.00;;;20.50;28.40;;;;;;5041013;28;20041;-49
2021/12/22 03:16:50;;;;;;;2.88;2.22;;;20.50;28.40;;;;;;5053636;28;20024;-51
2021/12/22 03:19:18;;;;;;;2.45;2.05;;;20.50;28.40;;;;;;5053340;28;20032;-49
2021/12/22 03:21:46;;;;;;;4.25;2.72;;;20.50;28.40;;;;;;5048627;28;20085;-48
2021/12/22 03:24:12;;;;;;;4.03;2.33;;;20.50;28.30;;;;;;5043070;28;20028;-54
2021/12/22 03:26:42;;;;;;;2.80;2.35;;;20.50;28.30;;;;;;5036952;28;20436;-53
2021/12/22 03:29:16;;;;;;;2.50;2.13;;;20.50;28.30;;;;;;5050920;28;20032;-50
2021/12/22 03:31:43;;;;;;;2.78;2.50;;;20.50;28.30;;;;;;5045414;28;20447;-46
2021/12/22 03:34:09;;;;;;;3.28;2.28;;;20.50;28.30;;;;;;5039271;28;20022;-54
2021/12/22 03:36:36;;;;;;;3.45;2.42;;;20.50;28.70;;;;;;5053341;28;20021;-49
2021/12/22 03:39:04;;;;;;;3.75;2.58;;;20.50;28.30;;;;;;5035811;28;20403;-51
2021/12/22 03:41:31;;;;;;;4.20;2.83;;;20.50;28.20;;;;;;5042268;28;20483;-50
2021/12/22 03:43:57;;;;;;;3.85;2.53;;;20.40;28.10;;;;;;5043348;28;20116;-49
2021/12/22 03:46:23;;;;;;;3.47;2.33;;;20.40;28.20;;;;;;5041217;28;20117;-50
2021/12/22 03:48:48;;;;;;;3.50;2.60;;;20.40;28.10;;;;;;5034835;28;20095;-52
2021/12/22 03:51:14;;;;;;;3.67;2.58;;;20.40;28.10;;;;;;5039909;28;20112;-52
2021/12/22 03:53:40;;;;;;;4.85;2.35;;;20.40;28.10;;;;;;5042261;28;20030;-53
2021/12/22 03:56:06;;;;;;;2.70;2.08;;;20.40;28.10;;;;;;5038689;28;20420;-52
2021/12/22 03:58:32;;;;;;;3.45;2.35;;;20.40;28.10;;;;;;5048867;28;20021;-54
2021/12/22 04:00:58;;;;;;;3.15;2.45;;;20.40;28.10;;;;;;5035567;28;20353;-52
2021/12/22 04:03:28;;;;;;;4.03;2.53;;;20.40;28.10;;;;;;5041870;28;20069;-46
2021/12/22 04:05:54;;;;;;;3.25;2.55;;;20.40;28.10;;;;;;5041309;28;20026;-51
2021/12/22 04:08:20;;;;;;;3.70;2.80;;;20.40;28.10;;;;;;5042019;28;20032;-50
2021/12/22 04:10:47;;;;;;;4.30;3.28;;;20.40;28.10;;;;;;5043834;28;20068;-48
2021/12/22 04:13:13;;;;;;;3.33;2.55;;;20.40;28.10;;;;;;5052880;28;20444;-47
2021/12/22 04:15:40;;;;;;;3.22;2.70;;;20.40;28.10;;;;;;5046348;28;20032;-50
2021/12/22 04:18:07;;;;;;;3.80;2.60;;;20.40;28.10;;;;;;5047320;28;20040;-48
2021/12/22 04:20:33;;;;;;;3.65;2.70;;;20.40;28.10;;;;;;5061421;28;20051;-49
2021/12/22 04:23:00;;;;;;;3.45;2.47;;;20.40;28.00;;;;;;5042350;28;20432;-48
2021/12/22 04:25:27;;;;;;;3.72;3.03;;;20.40;28.00;;;;;;5060921;28;20029;-51
2021/12/22 04:27:56;;;;;;;4.15;2.88;;;20.40;28.00;;;;;;5044641;28;20021;-52
2021/12/22 04:30:24;;;;;;;3.25;2.38;;;20.30;28.00;;;;;;5041485;28;20052;-50
2021/12/22 04:32:50;;;;;;;3.15;2.60;;;20.40;28.00;;;;;;5051448;28;20024;-46
2021/12/22 04:35:17;;;;;;;5.32;2.47;;;20.30;28.00;;;;;;5054154;28;20032;-53
2021/12/22 04:37:44;;;;;;;4.00;2.80;;;20.30;28.00;;;;;;5060135;28;20432;-48
2021/12/22 04:40:10;;;;;;;4.10;2.83;;;20.30;28.00;;;;;;5059428;28;20024;-50
2021/12/22 04:42:36;;;;;;;4.07;2.85;;;20.30;27.90;;;;;;5054549;28;20039;-44
2021/12/22 04:45:05;;;;;;;3.65;2.80;;;20.30;27.90;;;;;;5047148;28;20037;-51
2021/12/22 04:47:32;;;;;;;4.72;2.90;;;20.30;27.90;;;;;;5056484;28;20490;-52
2021/12/22 04:50:00;;;;;;;5.07;3.10;;;20.30;27.90;;;;;;5029071;28;20025;-49
2021/12/22 04:52:31;;;;;;;3.90;2.85;;;20.30;27.90;;;;;;5044620;28;20490;-50
2021/12/22 04:55:04;;;;;;;3.38;2.78;;;20.30;27.90;;;;;;5047552;28;20503;-47
2021/12/22 04:57:31;;;;;;;3.42;2.70;;;20.30;27.90;;;;;;5050310;28;20095;-48
2021/12/22 04:59:58;;;;;;;3.85;2.63;;;20.30;27.90;;;;;;5041059;28;20413;-46
2021/12/22 05:02:23;;;;;;;3.08;2.75;;;20.30;27.90;;;;;;5048495;28;20372;-50
2021/12/22 05:04:49;;;;;;;3.40;2.70;;;20.30;27.90;;;;;;5030997;28;20361;-48
2021/12/22 05:07:15;;;;;;;3.60;2.50;;;20.30;27.90;;;;;;5057911;28;20121;-49
2021/12/22 05:09:41;;;;;;;4.22;3.28;;;20.20;27.80;;;;;;5059749;28;20337;-51
2021/12/22 05:12:07;;;;;;;5.10;3.22;;;20.20;27.80;;;;;;5050680;28;20213;-50
2021/12/22 05:14:33;;;;;;;3.63;2.97;;;20.20;27.80;;;;;;5041805;28;20026;-50
2021/12/22 05:17:02;;;;;;;4.28;3.20;;;20.30;27.80;;;;;;5041284;28;20318;-51
2021/12/22 05:19:27;;;;;;;4.80;3.60;;;20.20;27.80;;;;;;5057590;28;20021;-52
2021/12/22 05:21:53;;;;;;;4.03;3.13;;;20.20;28.30;;;;;;5032000;28;20024;-47
2021/12/22 05:24:19;;;;;;;3.75;3.05;;;20.20;27.80;;;;;;5050507;28;20048;-51
2021/12/22 05:26:46;;;;;;;4.88;3.10;;;20.20;27.70;;;;;;5058090;28;20029;-48
2021/12/22 05:29:12;;;;;;;4.53;3.38;;;20.20;27.70;;;;;;5040533;28;20021;-51
2021/12/22 05:31:38;;;;;;;4.63;3.40;;;20.20;27.70;;;;;;5037298;28;20396;-51
2021/12/22 05:34:04;;;;;;;3.45;2.72;;;20.20;27.70;;;;;;5037982;28;20021;-53
2021/12/22 05:36:31;;;;;;;4.40;3.08;;;20.20;27.70;;;;;;5055263;28;20083;-49
2021/12/22 05:38:57;;;;;;;4.00;3.28;;;20.20;27.70;;;;;;5057137;28;20464;-55
2021/12/22 05:41:23;;;;;;;6.20;3.75;;;20.20;27.70;;;;;;5056041;28;20024;-53
2021/12/22 05:43:50;;;;;;;4.65;3.20;;;20.20;27.70;;;;;;5048722;28;20028;-52
2021/12/22 05:46:16;;;;;;;4.88;3.90;;;20.20;27.70;;;;;;5040334;28;20437;-51
2021/12/22 05:48:48;;;;;;;4.40;3.53;;;20.20;27.80;;;;;;5037095;28;20052;-50
2021/12/22 05:51:14;;;;;;;5.00;3.58;;;20.20;27.70;;;;;;5044941;28;20033;-51
2021/12/22 05:53:40;;;;;;;5.30;3.65;;;20.20;27.70;;;;;;5051651;28;20022;-51
2021/12/22 05:56:06;;;;;;;5.43;3.80;;;20.20;27.70;;;;;;5055609;28;20057;-49
2021/12/22 05:58:32;;;;;;;4.63;3.45;;;20.20;27.70;;;;;;5037196;28;20091;-47
2021/12/22 06:00:57;;;;;;;5.10;3.80;;;20.20;27.70;;;;;;5040146;28;20057;-49
2021/12/22 06:03:23;;;;;;;4.65;3.25;;;20.10;27.70;;;;;;5057138;28;20420;-45
2021/12/22 06:05:49;;;;;;;4.43;3.40;;;20.10;27.70;;;;;;5043222;28;20064;-51
2021/12/22 06:08:15;;;;;;;5.50;3.55;;;20.10;27.70;;;;;;5037066;28;20108;-51
2021/12/22 06:10:41;;;;;;;5.47;3.85;;;20.10;27.60;;;;;;5044381;28;20017;-45
2021/12/22 06:13:09;;;;;;;5.28;3.70;;;20.10;27.60;;;;;;5036921;28;20310;-47
2021/12/22 06:15:38;;;;;;;5.47;3.97;;;20.10;27.60;;;;;;5049905;28;20036;-49
2021/12/22 06:18:05;;;;;;;5.10;3.92;;;20.10;27.60;;;;;;5054031;28;20016;-50
2021/12/22 06:20:31;;;;;;;5.60;4.28;;;20.10;27.60;;;;;;5039904;28;20382;-52
2021/12/22 06:22:57;;;;;;;5.53;3.88;;;20.10;27.60;;;;;;5050059;28;20344;-52
2021/12/22 06:25:24;;;;;;;5.38;3.92;;;20.10;27.60;;;;;;5051616;28;20025;-47
2021/12/22 06:27:50;;;;;;;6.05;3.95;;;20.10;27.60;;;;;;5023042;28;20029;-51
2021/12/22 06:30:18;;;;;;;5.07;3.67;;;20.10;27.60;;;;;;5040882;28;20021;-50
2021/12/22 06:32:44;;;;;;;5.82;3.90;;;20.10;27.60;;;;;;5039774;28;20131;-49
2021/12/22 06:35:10;;;;;;;5.82;4.28;;;20.00;27.50;;;;;;5038338;28;20049;-49
2021/12/22 06:37:36;;;;;;;5.57;3.47;;;20.10;27.60;;;;;;5036665;28;20095;-48
2021/12/22 06:40:05;;;;;;;5.45;4.00;;;20.10;27.60;;;;;;5040489;28;20029;-50
2021/12/22 06:42:31;;;;;;;5.63;3.90;;;20.00;27.50;;;;;;5055629;28;20090;-53
2021/12/22 06:44:57;;;;;;;5.57;4.15;;;20.10;27.50;;;;;;5050160;28;20456;-50
2021/12/22 06:47:22;;;;;;;5.55;4.28;;;20.00;27.50;;;;;;5036089;28;20091;-53
2021/12/22 06:49:48;;;;;;;4.47;3.53;;;20.00;27.50;;;;;;5037354;28;20021;-47
2021/12/22 06:52:14;;;;;;;5.03;4.03;;;20.00;27.50;;;;;;5036121;28;20041;-52
2021/12/22 06:54:40;;;;;;;5.45;4.03;;;20.00;27.50;;;;;;5045410;28;20021;-48
2021/12/22 06:57:05;;;;;;;5.78;4.53;;;20.00;27.50;;;;;;5051558;28;20052;-52
2021/12/22 06:59:32;;;;;;;6.25;4.60;;;20.00;27.50;;;;;;5051675;28;20428;-54
2021/12/22 07:01:58;;;;;;;6.28;4.40;;;20.00;27.50;;;;;;5051815;28;20040;-51
2021/12/22 07:04:24;;;;;;;6.80;4.70;;;20.00;27.50;;;;;;5040267;28;20033;-48
2021/12/22 07:06:50;;;;;;;6.45;4.75;;;20.00;27.50;;;;;;5037055;28;20396;-51
2021/12/22 07:09:16;;;;;;;6.00;3.92;;;20.00;27.50;;;;;;5040110;28;20044;-50
2021/12/22 07:11:43;;;;;;;5.38;4.28;;;20.00;27.50;;;;;;5036266;28;20033;-49
2021/12/22 07:14:09;;;;;;;5.88;4.40;;;20.00;27.60;;;;;;5051069;28;20041;-47
2021/12/22 07:16:37;;;;;;;6.25;4.13;;;20.00;27.60;;;;;;5054155;28;20029;-51
2021/12/22 07:19:03;;;;;;;5.53;4.05;;;20.00;27.60;;;;;;5044364;28;20024;-50
2021/12/22 07:21:30;;;;;;;6.30;4.32;;;20.00;27.60;;;;;;5049394;28;20032;-49
2021/12/22 07:23:56;;;;;;;5.93;4.35;;;20.00;27.60;;;;;;5041403;28;20452;-49
2021/12/22 07:26:23;;;;;;;6.68;4.80;;;19.90;27.70;;;;;;5035382;28;20021;-53
2021/12/22 07:28:49;;;;;;;5.68;4.35;;;20.00;27.80;;;;;;5051195;28;20351;-48
2021/12/22 07:31:16;;;;;;;6.35;4.50;;;20.00;27.80;;;;;;5045040;28;20456;-45
2021/12/22 07:33:52;;;;;;;5.78;4.32;;;20.00;27.90;;;;;;5035555;28;20029;-50
2021/12/22 07:36:18;;;;;;;5.20;4.20;;;20.00;27.90;;;;;;5036215;28;20045;-51
2021/12/22 07:38:52;;;;;;;6.57;4.75;;;20.00;27.90;;;;;;5043923;28;20029;-50
2021/12/22 07:41:18;;;;;;;6.97;4.90;;;20.00;27.90;;;;;;5050284;28;20037;-52
2021/12/22 07:43:44;;;;;;;9.52;4.90;;;19.90;27.90;;;;;;5048506;28;20116;-56
2021/12/22 07:46:10;;;;;;;6.90;4.97;;;20.00;27.90;;;;;;5036495;28;20021;-54
2021/12/22 07:48:36;;;;;;;5.68;4.60;;;20.00;27.80;;;;;;5041999;28;20029;-48
2021/12/22 07:51:02;;;;;;;6.13;4.70;;;19.90;28.20;;;;;;5034581;28;20021;-52
2021/12/22 07:53:28;;;;;;;6.25;4.63;;;20.00;27.70;;;;;;5045127;28;20087;-53
2021/12/22 07:55:54;;;;;;;5.85;4.40;;;20.10;27.60;;;;;;5052986;28;20032;-51
2021/12/22 07:58:22;;;;;;;6.93;4.90;;;20.10;27.50;;;;;;5044305;28;20100;-47
2021/12/22 08:00:48;;;;;;;5.95;4.38;;;20.20;27.40;;;;;;5047222;28;20037;-55
2021/12/22 08:03:14;;;;;;;5.88;4.60;;;20.30;27.30;;;;;;5038053;28;20120;-55
2021/12/22 08:05:40;;;;;;;5.68;4.53;;;20.40;27.20;;;;;;5040524;28;20121;-53
2021/12/22 08:08:06;;;;;;;6.15;4.40;;;20.50;27.10;;;;;;5038406;28;20697;-54
2021/12/22 08:10:31;;;;;;;5.53;4.22;;;20.60;27.10;;;;;;5047174;28;20053;-54
2021/12/22 08:12:58;;;;;;;7.10;4.63;;;20.70;27.00;;;;;;5038063;28;20056;-46
2021/12/22 08:15:23;;;;;;;7.28;4.70;;;20.80;26.90;;;;;;5053410;28;20021;-52
2021/12/22 08:17:50;;;;;;;5.97;4.55;;;20.90;26.90;;;;;;5046253;28;20536;-52
2021/12/22 08:20:16;;;;;;;7.00;4.45;;;21.00;26.80;;;;;;5053098;28;20029;-49
2021/12/22 08:22:42;;;;;;;6.47;4.43;;;21.10;26.80;;;;;;5049837;28;20018;-54
2021/12/22 08:25:08;;;;;;;6.55;4.78;;;21.10;26.70;;;;;;5048155;28;20096;-51
2021/12/22 08:27:34;;;;;;;7.70;4.93;;;21.20;26.70;;;;;;5040655;28;20029;-54
2021/12/22 08:30:00;;;;;;;6.90;4.75;;;21.30;26.70;;;;;;5049766;28;20107;-51
2021/12/22 08:32:26;;;;;;;6.25;5.03;;;21.30;26.80;;;;;;5041433;28;20417;-54
2021/12/22 08:34:55;;;;;;;6.03;5.00;;;21.40;26.80;;;;;;5022937;28;20044;-60
2021/12/22 08:40:10;;;;;;;6.97;5.32;;;21.60;26.70;;;;;;5049341;28;20037;-57
2021/12/22 08:42:37;;;;;;;6.25;4.95;;;21.60;26.60;;;;;;5046414;28;20096;-52
2021/12/22 08:45:04;;;;;;;7.60;5.20;;;21.70;26.60;;;;;;5045593;28;20035;-54
2021/12/22 08:47:30;;;;;;;6.65;5.10;;;21.80;26.60;;;;;;5050757;28;20029;-56
2021/12/22 08:49:56;;;;;;;6.35;4.80;;;21.80;26.50;;;;;;5038139;28;20099;-57
2021/12/22 08:52:21;;;;;;;6.13;4.63;;;21.90;26.50;;;;;;5045106;28;20048;-57
2021/12/22 08:54:47;;;;;;;7.68;4.68;;;21.90;26.50;;;;;;5051862;28;20072;-55
2021/12/22 08:57:13;;;;;;;6.78;4.70;;;22.00;26.40;;;;;;5029793;28;20021;-60
2021/12/22 08:59:39;;;;;;;5.57;4.35;;;22.00;26.40;;;;;;5050860;28;20165;-53
2021/12/22 09:02:05;;;;;;;7.40;5.00;;;22.10;26.40;;;;;;5052934;28;20056;-53
2021/12/22 09:04:31;;;;;;;6.05;4.55;;;22.10;26.80;;;;;;5039230;28;20091;-56
2021/12/22 09:06:57;;;;;;;9.13;5.10;;;22.20;26.30;;;;;;5039339;28;20033;-57
2021/12/22 09:09:23;;;;;;;7.35;5.00;;;22.20;26.20;;;;;;5039163;28;20033;-55
2021/12/22 09:11:50;;;;;;;6.70;4.88;;;22.30;26.20;;;;;;5055591;28;20036;-58
2021/12/22 09:14:18;;;;;;;6.03;4.53;;;22.30;26.20;;;;;;5052212;28;20037;-54
2021/12/22 09:16:44;;;;;;;6.05;4.65;;;22.40;26.10;;;;;;5038128;28;20385;-56
2021/12/22 09:19:10;;;;;;;6.00;4.30;;;22.50;26.20;;;;;;5039994;28;20021;-57
2021/12/22 09:21:37;;;;;;;6.20;4.28;;;22.50;26.10;;;;;;5037741;28;20037;-51
2021/12/22 09:24:03;;;;;;;6.60;4.43;;;22.50;26.10;;;;;;5049940;28;20021;-57
2021/12/22 09:26:29;;;;;;;5.32;4.07;;;22.60;26.10;;;;;;5057637;28;20016;-55
2021/12/22 09:28:55;;;;;;;5.47;4.38;;;22.60;26.20;;;;;;5050500;28;20301;-55
2021/12/22 09:31:22;;;;;;;5.60;4.28;;;22.70;26.30;;;;;;5057647;28;20032;-56
2021/12/22 09:33:48;;;;;;;4.88;3.88;;;22.80;26.30;;;;;;5049924;28;20036;-51
2021/12/22 09:36:15;;;;;;;6.25;4.22;;;22.80;26.20;;;;;;5057514;28;20029;-51
2021/12/22 09:38:42;;;;;;;6.55;4.50;;;22.80;26.20;;;;;;5054911;28;20063;-56
2021/12/22 09:41:09;;;;;;;6.35;4.18;;;22.90;26.10;;;;;;5057745;28;20112;-54
2021/12/22 09:43:35;;;;;;;5.43;3.90;;;23.00;26.20;;;;;;5046956;28;20115;-55
2021/12/22 09:46:06;;;;;;;6.47;4.50;;;23.00;26.10;;;;;;5037559;28;20060;-53
2021/12/22 09:53:26;;;;;;;6.22;4.10;;;23.20;26.10;;;;;;5034942;28;20025;-52
2021/12/22 09:55:53;;;;;;;5.57;4.18;;;23.20;26.10;;;;;;5056973;28;20075;-55
2021/12/22 09:58:19;;;;;;;5.07;3.42;;;23.20;26.10;;;;;;5048668;28;20029;-53
2021/12/22 10:00:47;;;;;;;4.88;3.30;;;23.30;26.10;;;;;;5048723;28;20028;-54
2021/12/22 10:03:13;;;;;;;4.60;3.35;;;23.20;26.10;;;;;;5055048;28;20037;-50
2021/12/22 10:05:42;;;;;;;4.00;3.40;;;23.30;26.20;;;;;;5039709;28;20340;-55
2021/12/22 10:08:11;;;;;;;4.10;3.20;;;23.30;26.20;;;;;;5049880;28;20407;-56
2021/12/22 10:10:41;;;;;;;5.70;3.88;;;23.30;26.20;;;;;;5054299;28;20033;-51
2021/12/22 10:13:13;;;;;;;4.90;3.45;;;23.20;26.20;;;;;;5050832;28;20013;-55
2021/12/22 10:15:39;;;;;;;4.38;3.30;;;23.20;26.30;;;;;;5040004;28;20025;-54
2021/12/22 10:18:10;;;;;;;5.28;3.70;;;23.10;26.40;;;;;;5044420;28;20044;-51
2021/12/22 10:20:37;;;;;;;5.47;4.15;;;23.10;26.50;;;;;;5037322;28;20503;-53
2021/12/22 10:23:20;;;;;;;4.47;3.25;;;23.00;26.50;;;;;;5040627;28;20029;-47
2021/12/22 10:25:58;;;;;;;6.47;3.40;;;23.00;26.50;;;;;;5056168;28;20033;-48
2021/12/22 10:28:26;;;;;;;5.55;3.50;;;22.90;26.50;;;;;;5056780;28;20371;-53
2021/12/22 10:31:01;;;;;;;4.65;3.25;;;22.90;26.60;;;;;;5039279;28;20387;-50
2021/12/22 10:33:31;;;;;;;4.15;3.17;;;22.80;26.60;;;;;;5056422;28;20032;-49
2021/12/22 10:36:12;;;;;;;4.25;3.03;;;22.80;26.60;;;;;;5056178;28;20601;-54
2021/12/22 10:38:38;;;;;;;3.88;3.03;;;22.70;26.60;;;;;;5056208;28;20050;-52
2021/12/22 10:41:07;;;;;;;4.50;3.10;;;22.70;26.60;;;;;;5056446;28;20024;-47
2021/12/22 10:43:39;;;;;;;3.95;2.83;;;22.60;26.60;;;;;;5056290;28;20021;-57
2021/12/22 10:46:06;;;;;;;3.78;2.80;;;22.60;26.60;;;;;;5055874;28;20458;-49
2021/12/22 10:51:27;;;;;;;4.57;2.97;;;22.60;26.70;;;;;;5056175;28;20048;-49
2021/12/22 10:53:53;;;;;;;4.15;2.80;;;22.50;26.70;;;;;;5055925;28;20040;-49
2021/12/22 10:56:33;;;;;;;3.88;2.83;;;22.50;26.70;;;;;;5055720;28;20040;-48
2021/12/22 10:59:09;;;;;;;4.18;2.58;;;22.50;26.70;;;;;;5056190;28;20404;-52
2021/12/22 11:01:37;;;;;;;4.22;2.97;;;22.40;26.70;;;;;;5055983;28;20107;-49
2021/12/22 11:04:14;;;;;;;3.35;2.67;;;22.40;26.70;;;;;;5055917;28;20059;-48
2021/12/22 11:06:40;;;;;;;3.67;2.70;;;22.40;26.80;;;;;;5055922;28;20029;-48
2021/12/22 11:09:15;;;;;;;3.55;2.50;;;22.40;26.80;;;;;;5045508;28;20049;-53
2021/12/22 11:11:48;;;;;;;4.00;2.95;;;22.40;26.80;;;;;;5053238;28;20029;-58
2021/12/22 11:14:19;;;;;;;4.90;2.92;;;22.30;26.90;;;;;;5032787;28;20028;-49
2021/12/22 11:17:03;;;;;;;3.25;2.38;;;22.30;27.00;;;;;;5051298;28;20025;-51
2021/12/22 11:19:35;;;;;;;3.17;2.38;;;22.30;27.10;;;;;;5038593;28;20383;-49
2021/12/22 11:22:10;;;;;;;3.63;2.55;;;22.30;27.10;;;;;;5066935;28;20055;-50
2021/12/22 11:24:40;;;;;;;;;;;22.20;27.10;;;;;;5051590;28;20352;-46
2021/12/22 11:27:07;;;;;;;3.72;2.63;;;22.20;27.10;;;;;;5052511;28;20006;-48
2021/12/22 11:29:36;;;;;;;4.15;2.80;;;22.20;27.20;;;;;;5049054;28;20100;-49
2021/12/22 11:32:08;;;;;;;3.33;2.35;;;22.20;27.20;;;;;;5035401;28;20041;-50
2021/12/22 11:34:38;;;;;;;3.88;2.60;;;22.20;27.20;;;;;;5046465;28;20024;-54
2021/12/22 11:37:06;;;;;;;3.92;2.60;;;22.20;27.20;;;;;;5052470;28;20332;-49
2021/12/22 11:39:32;;;;;;;4.28;2.60;;;22.10;27.20;;;;;;5037548;28;20025;-54
2021/12/22 11:41:59;;;;;;;3.70;2.45;;;22.10;27.20;;;;;;5054531;28;20044;-53
2021/12/22 11:44:27;;;;;;;3.58;2.33;;;22.10;27.20;;;;;;5053877;28;20326;-51
2021/12/22 11:46:59;;;;;;;4.78;2.55;;;22.10;27.20;;;;;;5055335;28;20025;-45
2021/12/22 11:49:27;;;;;;;3.55;2.33;;;22.10;27.30;;;;;;5053246;28;20036;-46
2021/12/22 11:51:52;;;;;;;6.15;3.42;;;22.10;27.40;;;;;;5042513;28;20095;-50
2021/12/22 11:54:25;;;;;;;11.15;8.07;;;22.10;27.90;;;;;;5040712;28;20049;-45
2021/12/22 11:56:52;;;;;;;13.60;8.85;;;22.10;29.00;;;;;;5046459;28;20309;-47
2021/12/22 11:59:24;;;;;;;17.00;8.55;;;22.20;30.20;;;;;;5043853;28;20048;-50
2021/12/22 12:02:17;;;;;;;15.15;8.27;;;22.20;31.30;;;;;;5034492;28;20029;-50
2021/12/22 12:04:43;;;;;;;10.90;6.45;;;22.20;31.60;;;;;;5043653;28;21855;-49
2021/12/22 12:07:11;;;;;;;10.48;6.07;;;22.20;31.40;;;;;;5038423;28;20039;-48
2021/12/22 12:09:46;;;;;;;11.05;5.00;;;22.20;31.00;;;;;;5050179;28;20025;-49
2021/12/22 12:13:09;;;;;;;7.80;4.40;;;22.20;30.70;;;;;;5034219;28;20040;-53
2021/12/22 12:21:54;;;;;;;5.25;3.30;;;22.20;29.90;;;;;;5050835;28;20017;-50
2021/12/22 12:24:56;;;;;;;4.55;3.25;;;22.10;29.70;;;;;;5040892;28;20029;-49
2021/12/22 12:27:32;;;;;;;5.30;3.42;;;22.20;29.50;;;;;;5047018;28;20021;-52
2021/12/22 12:30:12;;;;;;;5.20;3.50;;;22.20;29.40;;;;;;5049688;28;20025;-47
2021/12/22 12:32:50;;;;;;;4.35;2.80;;;22.10;29.20;;;;;;5051446;28;20455;-50
2021/12/22 12:35:28;;;;;;;6.25;3.08;;;22.20;29.20;;;;;;5035342;28;20029;-46
2021/12/22 12:38:15;;;;;;;3.88;2.65;;;22.20;29.20;;;;;;5041934;28;20020;-55
2021/12/22 12:41:06;;;;;;;4.05;2.55;;;22.10;29.00;;;;;;5043159;28;20014;-54
2021/12/22 12:46:25;;;;;;;4.70;2.97;;;22.10;29.00;;;;;;5055570;28;20114;-55
2021/12/22 12:49:03;;;;;;;11.73;2.70;;;22.20;29.00;;;;;;5049872;28;20387;-60
2021/12/22 12:51:36;;;;;;;5.20;2.50;;;22.20;29.00;;;;;;5046319;28;20108;-54
2021/12/22 12:54:29;;;;;;;4.50;2.42;;;22.20;29.00;;;;;;5038569;28;21946;-55
2021/12/22 12:56:58;;;;;;;6.20;2.47;;;22.20;29.00;;;;;;5037691;28;20395;-58
2021/12/22 12:59:39;;;;;;;9.35;2.70;;;22.20;29.00;;;;;;5041045;28;20029;-56
2021/12/22 13:02:06;;;;;;;4.28;2.15;;;22.20;28.90;;;;;;5045237;28;20463;-59
2021/12/22 13:04:43;;;;;;;4.80;2.65;;;22.20;29.00;;;;;;5051654;28;20029;-55
2021/12/22 13:07:14;;;;;;;4.18;2.53;;;22.20;28.90;;;;;;5041377;28;20037;-57
2021/12/22 13:09:49;;;;;;;5.90;2.70;;;22.20;28.90;;;;;;5038204;28;20076;-57
2021/12/22 13:17:43;;;;;;;2.85;1.98;;;22.10;28.80;;;;;;5050261;28;20033;-59
2021/12/22 13:20:16;;;;;;;5.30;2.47;;;22.10;28.70;;;;;;5037613;28;20037;-57
2021/12/22 13:22:48;;;;;;;4.25;1.80;;;22.10;28.70;;;;;;5055099;28;20021;-58
2021/12/22 13:25:27;;;;;;;3.42;2.20;;;22.10;28.60;;;;;;5026799;28;20049;-56
2021/12/22 13:28:11;;;;;;;2.65;2.03;;;22.10;28.50;;;;;;5047712;28;20027;-55